< < Back
Terminal Aerodrome Forecast


Current Version              Previous Versions:   1  2  3  4  5  6  7  8  9  

Terminal Aerodrome Forecast

564
FTUS44 KHUN 281732
TAFHSV
TAF
KHSV 281732Z 2818/2918 27007KT P6SM VCTS SCT035CB BKN050
     FM290200 VRB03KT P6SM SCT070 SCT150
     FM291500 32005KT P6SM FEW070 BKN150=



Latest METAR

780
SAUS80 KWBC 282000
MTRHSV
METAR KHSV 281953Z 29008KT 260V330 10SM SCT055 SCT250 37/21 A2998 RMK
AO2 SLP141 T03720206


USA.gov is the U.S. government's official web portal to all federal, state and local government web resources and services.